sensor_id;sensor_type;location;lat;lon;timestamp;pressure;altitude;pressure_sealevel;temperature;humidity
59545;BME280;45368;55.002;-1.592;2023-01-25T00:01:58;102521.96;;;9.50;56.38
59545;BME280;45368;55.002;-1.592;2023-01-25T00:04:26;102519.39;;;9.75;55.94
59545;BME280;45368;55.002;-1.592;2023-01-25T00:06:54;102515.03;;;9.99;55.03
59545;BME280;45368;55.002;-1.592;2023-01-25T00:09:34;102513.42;;;10.34;54.57
59545;BME280;45368;55.002;-1.592;2023-01-25T00:12:03;102514.55;;;10.05;54.53
59545;BME280;45368;55.002;-1.592;2023-01-25T00:14:31;102508.47;;;10.50;54.06
59545;BME280;45368;55.002;-1.592;2023-01-25T00:16:58;102500.76;;;10.23;53.44
59545;BME280;45368;55.002;-1.592;2023-01-25T00:19:26;102498.02;;;9.86;54.13
59545;BME280;45368;55.002;-1.592;2023-01-25T00:21:54;102496.19;;;9.60;55.22
59545;BME280;45368;55.002;-1.592;2023-01-25T00:24:22;102491.74;;;10.20;54.27
59545;BME280;45368;55.002;-1.592;2023-01-25T00:26:49;102496.31;;;9.06;57.25
59545;BME280;45368;55.002;-1.592;2023-01-25T00:29:34;102488.27;;;9.11;57.01
59545;BME280;45368;55.002;-1.592;2023-01-25T00:32:25;102488.85;;;9.81;55.86
59545;BME280;45368;55.002;-1.592;2023-01-25T00:34:54;102490.08;;;8.33;59.60
59545;BME280;45368;55.002;-1.592;2023-01-25T00:37:34;102487.98;;;8.47;58.36
59545;BME280;45368;55.002;-1.592;2023-01-25T00:40:09;102483.34;;;8.05;59.80
59545;BME280;45368;55.002;-1.592;2023-01-25T00:42:39;102480.35;;;8.75;57.10
59545;BME280;45368;55.002;-1.592;2023-01-25T00:45:13;102473.55;;;8.53;56.94
59545;BME280;45368;55.002;-1.592;2023-01-25T00:47:40;102465.73;;;8.45;57.51
59545;BME280;45368;55.002;-1.592;2023-01-25T00:50:09;102466.17;;;8.29;58.07
59545;BME280;45368;55.002;-1.592;2023-01-25T00:52:37;102459.34;;;8.94;56.38
59545;BME280;45368;55.002;-1.592;2023-01-25T00:55:25;102463.13;;;8.14;57.98
59545;BME280;45368;55.002;-1.592;2023-01-25T00:57:58;102457.91;;;9.30;56.46
59545;BME280;45368;55.002;-1.592;2023-01-25T01:00:34;102458.31;;;8.30;56.89
59545;BME280;45368;55.002;-1.592;2023-01-25T01:03:02;102461.18;;;7.90;58.49
59545;BME280;45368;55.002;-1.592;2023-01-25T01:05:29;102466.90;;;7.14;60.74
59545;BME280;45368;55.002;-1.592;2023-01-25T01:07:57;102459.13;;;7.71;58.28
59545;BME280;45368;55.002;-1.592;2023-01-25T01:10:25;102457.63;;;7.94;57.73
59545;BME280;45368;55.002;-1.592;2023-01-25T01:12:52;102465.26;;;7.30;58.49
59545;BME280;45368;55.002;-1.592;2023-01-25T01:15:20;102466.68;;;6.74;61.10
59545;BME280;45368;55.002;-1.592;2023-01-25T01:17:49;102462.35;;;6.29;63.09
59545;BME280;45368;55.002;-1.592;2023-01-25T01:20:16;102460.38;;;6.89;61.85
59545;BME280;45368;55.002;-1.592;2023-01-25T01:22:43;102457.78;;;7.23;61.39
59545;BME280;45368;55.002;-1.592;2023-01-25T01:25:11;102452.45;;;8.26;58.61
59545;BME280;45368;55.002;-1.592;2023-01-25T01:27:39;102456.21;;;7.62;58.78
59545;BME280;45368;55.002;-1.592;2023-01-25T01:30:19;102453.97;;;7.72;59.79
59545;BME280;45368;55.002;-1.592;2023-01-25T01:32:47;102455.33;;;6.89;62.13
59545;BME280;45368;55.002;-1.592;2023-01-25T01:35:44;102457.04;;;6.89;63.85
59545;BME280;45368;55.002;-1.592;2023-01-25T01:38:17;102449.06;;;7.45;61.82
59545;BME280;45368;55.002;-1.592;2023-01-25T01:40:50;102445.34;;;8.17;59.25
59545;BME280;45368;55.002;-1.592;2023-01-25T01:44:15;102445.42;;;9.13;57.78
59545;BME280;45368;55.002;-1.592;2023-01-25T01:46:52;102444.91;;;9.30;57.05
59545;BME280;45368;55.002;-1.592;2023-01-25T01:49:23;102442.85;;;9.03;57.37
59545;BME280;45368;55.002;-1.592;2023-01-25T01:51:56;102440.06;;;9.47;56.97
59545;BME280;45368;55.002;-1.592;2023-01-25T01:54:51;102440.04;;;10.04;57.27
59545;BME280;45368;55.002;-1.592;2023-01-25T01:57:33;102437.86;;;8.89;59.38
59545;BME280;45368;55.002;-1.592;2023-01-25T02:00:59;102442.85;;;9.79;59.24
59545;BME280;45368;55.002;-1.592;2023-01-25T02:06:33;102457.05;;;8.87;62.25
59545;BME280;45368;55.002;-1.592;2023-01-25T02:09:31;102450.49;;;9.85;58.82
59545;BME280;45368;55.002;-1.592;2023-01-25T02:12:01;102446.81;;;9.14;58.98
59545;BME280;45368;55.002;-1.592;2023-01-25T02:14:28;102445.77;;;9.97;58.06
59545;BME280;45368;55.002;-1.592;2023-01-25T02:16:57;102443.65;;;10.09;57.48
59545;BME280;45368;55.002;-1.592;2023-01-25T02:19:36;102441.05;;;10.25;56.92
59545;BME280;45368;55.002;-1.592;2023-01-25T02:22:09;102441.15;;;10.29;57.15
59545;BME280;45368;55.002;-1.592;2023-01-25T02:24:40;102444.72;;;10.15;57.62
59545;BME280;45368;55.002;-1.592;2023-01-25T02:27:10;102441.62;;;10.94;56.12
59545;BME280;45368;55.002;-1.592;2023-01-25T02:29:39;102435.55;;;10.11;56.37
59545;BME280;45368;55.002;-1.592;2023-01-25T02:32:12;102437.32;;;10.38;56.65
59545;BME280;45368;55.002;-1.592;2023-01-25T02:34:45;102441.58;;;9.53;59.38
59545;BME280;45368;55.002;-1.592;2023-01-25T02:37:14;102444.63;;;9.15;61.50
59545;BME280;45368;55.002;-1.592;2023-01-25T02:39:42;102437.19;;;8.95;62.56
59545;BME280;45368;55.002;-1.592;2023-01-25T02:42:10;102434.50;;;9.41;61.54
59545;BME280;45368;55.002;-1.592;2023-01-25T02:44:40;102442.09;;;8.81;64.17
59545;BME280;45368;55.002;-1.592;2023-01-25T02:47:14;102439.14;;;9.03;63.90
59545;BME280;45368;55.002;-1.592;2023-01-25T02:49:41;102436.59;;;8.55;64.06
59545;BME280;45368;55.002;-1.592;2023-01-25T02:52:08;102426.48;;;9.52;62.67
59545;BME280;45368;55.002;-1.592;2023-01-25T02:54:36;102421.62;;;9.20;62.68
59545;BME280;45368;55.002;-1.592;2023-01-25T02:57:08;102414.66;;;9.95;61.05
59545;BME280;45368;55.002;-1.592;2023-01-25T02:59:41;102411.20;;;10.60;58.70
59545;BME280;45368;55.002;-1.592;2023-01-25T03:02:10;102409.82;;;10.24;58.51
59545;BME280;45368;55.002;-1.592;2023-01-25T03:04:37;102411.22;;;10.56;58.45
59545;BME280;45368;55.002;-1.592;2023-01-25T03:07:09;102405.06;;;9.96;59.61
59545;BME280;45368;55.002;-1.592;2023-01-25T03:09:38;102407.13;;;10.16;59.19
59545;BME280;45368;55.002;-1.592;2023-01-25T03:12:06;102406.73;;;9.69;61.99
59545;BME280;45368;55.002;-1.592;2023-01-25T03:14:39;102403.13;;;9.51;61.00
59545;BME280;45368;55.002;-1.592;2023-01-25T03:17:12;102403.53;;;9.92;59.89
59545;BME280;45368;55.002;-1.592;2023-01-25T03:19:39;102396.96;;;10.16;58.76
59545;BME280;45368;55.002;-1.592;2023-01-25T03:22:06;102391.51;;;10.51;57.60
59545;BME280;45368;55.002;-1.592;2023-01-25T03:24:34;102385.90;;;10.93;56.86
59545;BME280;45368;55.002;-1.592;2023-01-25T03:27:06;102386.40;;;10.20;57.93
59545;BME280;45368;55.002;-1.592;2023-01-25T03:29:35;102388.25;;;10.20;58.80
59545;BME280;45368;55.002;-1.592;2023-01-25T03:32:03;102386.33;;;10.67;56.98
59545;BME280;45368;55.002;-1.592;2023-01-25T03:34:30;102387.95;;;11.46;55.48
59545;BME280;45368;55.002;-1.592;2023-01-25T03:37:03;102384.09;;;11.32;55.12
59545;BME280;45368;55.002;-1.592;2023-01-25T03:39:31;102385.55;;;10.82;56.69
59545;BME280;45368;55.002;-1.592;2023-01-25T03:42:19;102385.81;;;10.79;56.78
59545;BME280;45368;55.002;-1.592;2023-01-25T03:44:46;102385.66;;;10.69;56.73
59545;BME280;45368;55.002;-1.592;2023-01-25T03:47:14;102384.74;;;10.58;57.13
59545;BME280;45368;55.002;-1.592;2023-01-25T03:49:47;102392.31;;;10.78;56.68
59545;BME280;45368;55.002;-1.592;2023-01-25T03:52:15;102388.87;;;11.05;56.57
59545;BME280;45368;55.002;-1.592;2023-01-25T03:54:48;102391.72;;;10.82;56.72
59545;BME280;45368;55.002;-1.592;2023-01-25T03:57:15;102392.33;;;11.04;55.72
59545;BME280;45368;55.002;-1.592;2023-01-25T03:59:43;102396.07;;;10.12;57.51
59545;BME280;45368;55.002;-1.592;2023-01-25T04:02:21;102391.24;;;10.77;57.00
59545;BME280;45368;55.002;-1.592;2023-01-25T04:04:54;102386.10;;;10.68;56.96
59545;BME280;45368;55.002;-1.592;2023-01-25T04:07:23;102391.29;;;10.18;57.51
59545;BME280;45368;55.002;-1.592;2023-01-25T04:09:55;102386.05;;;10.49;57.77
59545;BME280;45368;55.002;-1.592;2023-01-25T04:12:24;102383.70;;;9.40;60.39
59545;BME280;45368;55.002;-1.592;2023-01-25T04:14:51;102375.21;;;10.18;58.88
59545;BME280;45368;55.002;-1.592;2023-01-25T04:17:23;102377.77;;;10.10;60.21
59545;BME280;45368;55.002;-1.592;2023-01-25T04:19:50;102373.74;;;8.65;63.59
59545;BME280;45368;55.002;-1.592;2023-01-25T04:22:23;102367.21;;;8.81;63.25
59545;BME280;45368;55.002;-1.592;2023-01-25T04:25:08;102370.08;;;10.13;59.98
59545;BME280;45368;55.002;-1.592;2023-01-25T04:28:52;102366.95;;;9.08;64.25
59545;BME280;45368;55.002;-1.592;2023-01-25T04:32:50;102358.65;;;8.74;64.78
59545;BME280;45368;55.002;-1.592;2023-01-25T04:35:36;102352.43;;;9.00;64.20
59545;BME280;45368;55.002;-1.592;2023-01-25T04:38:04;102339.67;;;9.20;63.52
59545;BME280;45368;55.002;-1.592;2023-01-25T04:40:32;102344.56;;;8.50;65.73
59545;BME280;45368;55.002;-1.592;2023-01-25T04:43:44;102341.88;;;9.04;65.90
59545;BME280;45368;55.002;-1.592;2023-01-25T04:46:16;102336.57;;;8.53;65.55
59545;BME280;45368;55.002;-1.592;2023-01-25T04:48:48;102341.97;;;8.48;66.11
59545;BME280;45368;55.002;-1.592;2023-01-25T04:51:22;102338.81;;;8.47;66.24
59545;BME280;45368;55.002;-1.592;2023-01-25T04:53:49;102339.91;;;8.02;67.42
59545;BME280;45368;55.002;-1.592;2023-01-25T04:56:34;102333.09;;;8.24;66.74
59545;BME280;45368;55.002;-1.592;2023-01-25T04:59:07;102333.21;;;8.35;66.56
59545;BME280;45368;55.002;-1.592;2023-01-25T05:01:34;102332.24;;;8.07;68.15
59545;BME280;45368;55.002;-1.592;2023-01-25T05:04:02;102334.29;;;7.88;69.36
59545;BME280;45368;55.002;-1.592;2023-01-25T05:06:39;102328.17;;;7.84;68.97
59545;BME280;45368;55.002;-1.592;2023-01-25T05:09:08;102320.90;;;8.41;67.72
59545;BME280;45368;55.002;-1.592;2023-01-25T05:11:35;102313.67;;;8.26;67.53
59545;BME280;45368;55.002;-1.592;2023-01-25T05:14:45;102312.51;;;8.10;67.88
59545;BME280;45368;55.002;-1.592;2023-01-25T05:17:12;102310.89;;;8.44;67.21
59545;BME280;45368;55.002;-1.592;2023-01-25T05:19:40;102301.15;;;8.78;65.78
59545;BME280;45368;55.002;-1.592;2023-01-25T05:22:17;102297.03;;;8.57;66.23
59545;BME280;45368;55.002;-1.592;2023-01-25T05:24:45;102291.52;;;9.27;65.16
59545;BME280;45368;55.002;-1.592;2023-01-25T05:27:24;102290.57;;;8.53;66.18
59545;BME280;45368;55.002;-1.592;2023-01-25T05:29:52;102284.08;;;9.11;63.90
59545;BME280;45368;55.002;-1.592;2023-01-25T05:32:34;102280.06;;;8.74;65.34
59545;BME280;45368;55.002;-1.592;2023-01-25T05:35:02;102270.33;;;8.55;64.22
59545;BME280;45368;55.002;-1.592;2023-01-25T05:37:29;102263.05;;;9.43;63.45
59545;BME280;45368;55.002;-1.592;2023-01-25T05:39:59;102255.19;;;9.67;61.25
59545;BME280;45368;55.002;-1.592;2023-01-25T05:42:26;102252.20;;;10.06;60.52
59545;BME280;45368;55.002;-1.592;2023-01-25T05:45:10;102248.22;;;10.09;60.41
59545;BME280;45368;55.002;-1.592;2023-01-25T05:47:37;102230.62;;;10.89;58.01
59545;BME280;45368;55.002;-1.592;2023-01-25T05:50:34;102232.96;;;10.06;59.19
59545;BME280;45368;55.002;-1.592;2023-01-25T05:53:20;102234.17;;;10.49;58.84
59545;BME280;45368;55.002;-1.592;2023-01-25T05:55:50;102232.26;;;10.68;58.12
59545;BME280;45368;55.002;-1.592;2023-01-25T05:58:18;102237.25;;;9.56;61.36
59545;BME280;45368;55.002;-1.592;2023-01-25T06:00:45;102231.82;;;9.64;61.70
59545;BME280;45368;55.002;-1.592;2023-01-25T06:03:19;102238.19;;;8.91;62.99
59545;BME280;45368;55.002;-1.592;2023-01-25T06:05:53;102231.68;;;8.96;63.00
59545;BME280;45368;55.002;-1.592;2023-01-25T06:08:34;102219.29;;;9.12;63.24
59545;BME280;45368;55.002;-1.592;2023-01-25T06:11:05;102220.35;;;9.60;61.18
59545;BME280;45368;55.002;-1.592;2023-01-25T06:13:33;102209.55;;;8.91;62.76
59545;BME280;45368;55.002;-1.592;2023-01-25T06:16:06;102212.55;;;8.72;64.34
59545;BME280;45368;55.002;-1.592;2023-01-25T06:18:34;102216.11;;;8.25;65.76
59545;BME280;45368;55.002;-1.592;2023-01-25T06:21:09;102213.14;;;8.37;65.30
59545;BME280;45368;55.002;-1.592;2023-01-25T06:23:37;102212.65;;;8.84;64.20
59545;BME280;45368;55.002;-1.592;2023-01-25T06:26:06;102215.34;;;8.19;65.65
59545;BME280;45368;55.002;-1.592;2023-01-25T06:28:35;102223.87;;;8.07;66.75
59545;BME280;45368;55.002;-1.592;2023-01-25T06:31:20;102212.61;;;7.96;67.20
59545;BME280;45368;55.002;-1.592;2023-01-25T06:33:49;102210.66;;;8.07;66.66
59545;BME280;45368;55.002;-1.592;2023-01-25T06:36:19;102206.84;;;7.96;66.56
59545;BME280;45368;55.002;-1.592;2023-01-25T06:38:47;102202.95;;;8.31;66.36
59545;BME280;45368;55.002;-1.592;2023-01-25T06:41:15;102205.80;;;8.02;66.87
59545;BME280;45368;55.002;-1.592;2023-01-25T06:44:49;102205.08;;;8.11;66.84
59545;BME280;45368;55.002;-1.592;2023-01-25T06:47:17;102204.35;;;7.71;67.70
59545;BME280;45368;55.002;-1.592;2023-01-25T06:49:45;102197.81;;;8.37;66.63
59545;BME280;45368;55.002;-1.592;2023-01-25T06:52:27;102203.71;;;8.01;67.43
59545;BME280;45368;55.002;-1.592;2023-01-25T06:57:25;102205.07;;;8.85;65.80
59545;BME280;45368;55.002;-1.592;2023-01-25T07:00:11;102203.34;;;8.38;65.14
59545;BME280;45368;55.002;-1.592;2023-01-25T07:02:40;102195.98;;;8.40;64.02
59545;BME280;45368;55.002;-1.592;2023-01-25T07:05:08;102199.06;;;7.56;65.33
59545;BME280;45368;55.002;-1.592;2023-01-25T07:07:36;102196.66;;;8.59;64.61
59545;BME280;45368;55.002;-1.592;2023-01-25T07:10:20;102193.02;;;8.87;63.67
59545;BME280;45368;55.002;-1.592;2023-01-25T07:12:48;102191.54;;;8.35;63.93
59545;BME280;45368;55.002;-1.592;2023-01-25T07:15:36;102182.53;;;8.37;64.94
59545;BME280;45368;55.002;-1.592;2023-01-25T07:18:04;102176.12;;;8.06;65.49
59545;BME280;45368;55.002;-1.592;2023-01-25T07:20:38;102176.11;;;8.72;63.82
59545;BME280;45368;55.002;-1.592;2023-01-25T07:23:05;102172.73;;;8.49;63.96
59545;BME280;45368;55.002;-1.592;2023-01-25T07:25:33;102168.92;;;8.87;63.47
59545;BME280;45368;55.002;-1.592;2023-01-25T07:28:07;102160.97;;;8.27;64.59
59545;BME280;45368;55.002;-1.592;2023-01-25T07:30:35;102149.94;;;8.27;65.31
59545;BME280;45368;55.002;-1.592;2023-01-25T07:33:03;102150.23;;;8.35;65.55
59545;BME280;45368;55.002;-1.592;2023-01-25T07:35:47;102145.87;;;7.72;67.03
59545;BME280;45368;55.002;-1.592;2023-01-25T07:38:16;102138.88;;;7.70;67.18
59545;BME280;45368;55.002;-1.592;2023-01-25T07:40:51;102135.61;;;7.63;67.70
59545;BME280;45368;55.002;-1.592;2023-01-25T07:43:19;102128.84;;;7.68;66.81
59545;BME280;45368;55.002;-1.592;2023-01-25T07:45:48;102118.81;;;8.01;66.18
59545;BME280;45368;55.002;-1.592;2023-01-25T07:48:17;102117.63;;;8.23;64.48
59545;BME280;45368;55.002;-1.592;2023-01-25T07:50:58;102117.29;;;8.70;64.06
59545;BME280;45368;55.002;-1.592;2023-01-25T07:53:53;102108.88;;;9.16;63.20
59545;BME280;45368;55.002;-1.592;2023-01-25T07:56:23;102113.37;;;8.34;63.93
59545;BME280;45368;55.002;-1.592;2023-01-25T07:58:52;102104.97;;;8.56;63.68
59545;BME280;45368;55.002;-1.592;2023-01-25T08:01:22;102092.81;;;8.57;62.70
59545;BME280;45368;55.002;-1.592;2023-01-25T08:03:51;102084.51;;;8.62;62.54
59545;BME280;45368;55.002;-1.592;2023-01-25T08:06:22;102082.05;;;8.75;63.09
59545;BME280;45368;55.002;-1.592;2023-01-25T08:08:50;102085.72;;;8.65;62.81
59545;BME280;45368;55.002;-1.592;2023-01-25T08:11:20;102082.42;;;8.55;62.97
59545;BME280;45368;55.002;-1.592;2023-01-25T08:13:47;102074.35;;;9.24;61.21
59545;BME280;45368;55.002;-1.592;2023-01-25T08:16:16;102070.65;;;9.17;60.90
59545;BME280;45368;55.002;-1.592;2023-01-25T08:18:46;102064.74;;;9.49;60.07
59545;BME280;45368;55.002;-1.592;2023-01-25T08:21:52;102064.75;;;9.09;61.17
59545;BME280;45368;55.002;-1.592;2023-01-25T08:24:19;102066.39;;;9.22;60.93
59545;BME280;45368;55.002;-1.592;2023-01-25T08:26:46;102070.39;;;9.88;59.48
59545;BME280;45368;55.002;-1.592;2023-01-25T08:29:19;102067.77;;;10.37;57.74
59545;BME280;45368;55.002;-1.592;2023-01-25T08:31:47;102075.79;;;10.42;56.97
59545;BME280;45368;55.002;-1.592;2023-01-25T08:34:38;102076.73;;;11.21;55.54
59545;BME280;45368;55.002;-1.592;2023-01-25T08:37:05;102084.24;;;10.88;55.92
59545;BME280;45368;55.002;-1.592;2023-01-25T08:39:33;102083.90;;;10.56;55.98
59545;BME280;45368;55.002;-1.592;2023-01-25T08:42:01;102088.50;;;9.72;59.36
59545;BME280;45368;55.002;-1.592;2023-01-25T08:44:34;102089.01;;;9.27;61.29
59545;BME280;45368;55.002;-1.592;2023-01-25T08:47:01;102090.53;;;8.91;61.20
59545;BME280;45368;55.002;-1.592;2023-01-25T08:49:29;102091.84;;;9.35;62.47
59545;BME280;45368;55.002;-1.592;2023-01-25T08:52:07;102087.08;;;8.89;62.64
59545;BME280;45368;55.002;-1.592;2023-01-25T08:54:34;102090.56;;;9.50;62.63
59545;BME280;45368;55.002;-1.592;2023-01-25T08:57:02;102094.89;;;8.91;64.15
59545;BME280;45368;55.002;-1.592;2023-01-25T08:59:29;102082.46;;;8.83;64.94
59545;BME280;45368;55.002;-1.592;2023-01-25T09:01:57;102066.82;;;8.16;66.81
59545;BME280;45368;55.002;-1.592;2023-01-25T09:04:25;102059.79;;;8.21;66.14
59545;BME280;45368;55.002;-1.592;2023-01-25T09:06:53;102059.80;;;8.58;65.45
59545;BME280;45368;55.002;-1.592;2023-01-25T09:09:38;102056.01;;;7.87;67.67
59545;BME280;45368;55.002;-1.592;2023-01-25T09:12:10;102055.40;;;8.17;66.63
59545;BME280;45368;55.002;-1.592;2023-01-25T09:14:46;102054.92;;;8.34;67.42
59545;BME280;45368;55.002;-1.592;2023-01-25T09:17:14;102047.33;;;8.43;67.28
59545;BME280;45368;55.002;-1.592;2023-01-25T09:19:41;102050.18;;;8.20;69.33
59545;BME280;45368;55.002;-1.592;2023-01-25T09:22:09;102053.48;;;7.85;69.15
59545;BME280;45368;55.002;-1.592;2023-01-25T09:26:21;102049.43;;;8.39;69.04
59545;BME280;45368;55.002;-1.592;2023-01-25T09:32:19;102042.48;;;8.15;68.66
59545;BME280;45368;55.002;-1.592;2023-01-25T09:38:22;102051.27;;;8.19;70.00
59545;BME280;45368;55.002;-1.592;2023-01-25T09:41:06;102046.07;;;8.26;68.66
59545;BME280;45368;55.002;-1.592;2023-01-25T09:45:20;102034.71;;;8.55;67.61
59545;BME280;45368;55.002;-1.592;2023-01-25T09:48:35;102028.39;;;8.74;66.28
59545;BME280;45368;55.002;-1.592;2023-01-25T09:53:12;102033.78;;;9.07;64.88
59545;BME280;45368;55.002;-1.592;2023-01-25T09:55:43;102034.28;;;9.04;65.04
59545;BME280;45368;55.002;-1.592;2023-01-25T09:58:39;102027.67;;;9.94;62.32
59545;BME280;45368;55.002;-1.592;2023-01-25T10:01:18;102036.27;;;10.21;60.64
59545;BME280;45368;55.002;-1.592;2023-01-25T10:03:52;102041.68;;;10.43;59.61
59545;BME280;45368;55.002;-1.592;2023-01-25T10:06:23;102050.16;;;10.62;58.67
59545;BME280;45368;55.002;-1.592;2023-01-25T10:09:00;102051.62;;;10.82;57.71
59545;BME280;45368;55.002;-1.592;2023-01-25T10:11:47;102055.95;;;10.29;59.99
59545;BME280;45368;55.002;-1.592;2023-01-25T10:14:17;102060.16;;;9.73;61.20
59545;BME280;45368;55.002;-1.592;2023-01-25T10:16:56;102059.30;;;9.72;62.05
59545;BME280;45368;55.002;-1.592;2023-01-25T10:19:30;102060.70;;;9.69;62.37
59545;BME280;45368;55.002;-1.592;2023-01-25T10:22:14;102058.16;;;9.49;62.63
59545;BME280;45368;55.002;-1.592;2023-01-25T10:24:59;102069.25;;;9.36;63.68
59545;BME280;45368;55.002;-1.592;2023-01-25T10:27:42;102066.36;;;9.15;64.64
59545;BME280;45368;55.002;-1.592;2023-01-25T10:30:26;102066.29;;;9.04;63.90
59545;BME280;45368;55.002;-1.592;2023-01-25T10:32:56;102067.93;;;9.46;63.00
59545;BME280;45368;55.002;-1.592;2023-01-25T10:35:36;102066.25;;;9.49;62.95
59545;BME280;45368;55.002;-1.592;2023-01-25T10:38:12;102069.25;;;8.94;64.87
59545;BME280;45368;55.002;-1.592;2023-01-25T10:40:44;102074.25;;;9.20;64.83
59545;BME280;45368;55.002;-1.592;2023-01-25T10:43:17;102071.47;;;9.70;63.52
59545;BME280;45368;55.002;-1.592;2023-01-25T10:45:44;102068.74;;;9.70;63.15
59545;BME280;45368;55.002;-1.592;2023-01-25T10:48:57;102073.69;;;9.19;65.18
59545;BME280;45368;55.002;-1.592;2023-01-25T10:51:30;102073.01;;;9.23;64.57
59545;BME280;45368;55.002;-1.592;2023-01-25T10:54:00;102078.16;;;9.03;65.47
59545;BME280;45368;55.002;-1.592;2023-01-25T10:56:28;102064.67;;;9.65;63.51
59545;BME280;45368;55.002;-1.592;2023-01-25T10:59:07;102069.95;;;9.45;64.73
59545;BME280;45368;55.002;-1.592;2023-01-25T11:01:41;102067.07;;;9.21;65.75
59545;BME280;45368;55.002;-1.592;2023-01-25T11:04:27;102066.56;;;8.95;66.86
59545;BME280;45368;55.002;-1.592;2023-01-25T11:06:56;102068.01;;;8.64;68.56
59545;BME280;45368;55.002;-1.592;2023-01-25T11:09:40;102067.42;;;8.72;68.80
59545;BME280;45368;55.002;-1.592;2023-01-25T11:12:16;102064.55;;;8.03;69.87
59545;BME280;45368;55.002;-1.592;2023-01-25T11:14:45;102064.61;;;8.67;68.47
59545;BME280;45368;55.002;-1.592;2023-01-25T11:17:25;102061.98;;;8.09;69.86
59545;BME280;45368;55.002;-1.592;2023-01-25T11:20:25;102050.03;;;8.68;68.68
59545;BME280;45368;55.002;-1.592;2023-01-25T11:22:55;102044.37;;;8.66;68.82
59545;BME280;45368;55.002;-1.592;2023-01-25T11:25:28;102038.23;;;8.99;66.99
59545;BME280;45368;55.002;-1.592;2023-01-25T11:28:23;102035.16;;;8.93;68.52
59545;BME280;45368;55.002;-1.592;2023-01-25T11:30:52;102039.15;;;8.98;68.22
59545;BME280;45368;55.002;-1.592;2023-01-25T11:33:20;102042.26;;;8.63;68.40
59545;BME280;45368;55.002;-1.592;2023-01-25T11:36:00;102038.80;;;8.73;68.68
59545;BME280;45368;55.002;-1.592;2023-01-25T11:38:30;102033.17;;;8.69;68.55
59545;BME280;45368;55.002;-1.592;2023-01-25T11:44:00;102031.36;;;8.44;69.94
59545;BME280;45368;55.002;-1.592;2023-01-25T11:46:52;102026.07;;;8.55;68.97
59545;BME280;45368;55.002;-1.592;2023-01-25T11:49:40;102029.66;;;8.37;69.14
59545;BME280;45368;55.002;-1.592;2023-01-25T11:53:32;102014.67;;;8.22;69.66
59545;BME280;45368;55.002;-1.592;2023-01-25T14:09:34;101973.40;;;6.07;61.03
59545;BME280;45368;55.002;-1.592;2023-01-25T14:12:02;101986.00;;;7.36;58.54
59545;BME280;45368;55.002;-1.592;2023-01-25T14:14:35;101995.77;;;7.52;58.72
59545;BME280;45368;55.002;-1.592;2023-01-25T14:17:17;101991.74;;;6.73;61.08
59545;BME280;45368;55.002;-1.592;2023-01-25T14:19:46;101981.85;;;7.20;60.62
59545;BME280;45368;55.002;-1.592;2023-01-25T14:22:21;101973.78;;;6.89;60.67
59545;BME280;45368;55.002;-1.592;2023-01-25T14:25:10;101975.94;;;6.85;60.23
59545;BME280;45368;55.002;-1.592;2023-01-25T14:27:42;101979.34;;;7.29;59.41
59545;BME280;45368;55.002;-1.592;2023-01-25T14:30:17;101983.61;;;7.37;58.32
59545;BME280;45368;55.002;-1.592;2023-01-25T14:32:45;101989.94;;;7.38;59.63
59545;BME280;45368;55.002;-1.592;2023-01-25T14:35:46;101996.62;;;6.80;60.62
59545;BME280;45368;55.002;-1.592;2023-01-25T14:38:32;101996.03;;;7.17;59.51
59545;BME280;45368;55.002;-1.592;2023-01-25T14:41:04;102003.53;;;6.77;61.83
59545;BME280;45368;55.002;-1.592;2023-01-25T14:43:35;101990.60;;;6.29;61.06
59545;BME280;45368;55.002;-1.592;2023-01-25T14:46:18;101981.53;;;7.17;59.69
59545;BME280;45368;55.002;-1.592;2023-01-25T14:48:47;101980.05;;;6.97;59.86
59545;BME280;45368;55.002;-1.592;2023-01-25T14:51:19;101986.15;;;7.17;59.38
59545;BME280;45368;55.002;-1.592;2023-01-25T14:53:54;101989.32;;;7.08;58.88
59545;BME280;45368;55.002;-1.592;2023-01-25T14:56:31;101989.20;;;7.38;58.23
59545;BME280;45368;55.002;-1.592;2023-01-25T14:59:00;101994.48;;;7.26;57.69
59545;BME280;45368;55.002;-1.592;2023-01-25T15:01:33;102000.62;;;7.13;57.37
59545;BME280;45368;55.002;-1.592;2023-01-25T15:04:03;102016.90;;;6.89;58.83
59545;BME280;45368;55.002;-1.592;2023-01-25T15:06:44;102017.32;;;6.55;59.13
59545;BME280;45368;55.002;-1.592;2023-01-25T15:09:30;102010.78;;;6.65;59.50
59545;BME280;45368;55.002;-1.592;2023-01-25T15:11:59;102007.71;;;6.75;57.95
59545;BME280;45368;55.002;-1.592;2023-01-25T15:14:26;102012.18;;;6.96;57.45
59545;BME280;45368;55.002;-1.592;2023-01-25T15:16:54;102015.44;;;6.99;57.56
59545;BME280;45368;55.002;-1.592;2023-01-25T15:19:26;102021.69;;;6.92;56.88
59545;BME280;45368;55.002;-1.592;2023-01-25T15:21:55;102030.18;;;6.84;58.24
59545;BME280;45368;55.002;-1.592;2023-01-25T15:24:28;102028.87;;;6.19;58.53
59545;BME280;45368;55.002;-1.592;2023-01-25T15:26:55;102020.56;;;6.65;57.50
59545;BME280;45368;55.002;-1.592;2023-01-25T15:29:24;102020.23;;;6.89;57.13
59545;BME280;45368;55.002;-1.592;2023-01-25T15:31:53;102028.71;;;6.49;58.42
59545;BME280;45368;55.002;-1.592;2023-01-25T15:34:24;102031.73;;;6.43;59.42
59545;BME280;45368;55.002;-1.592;2023-01-25T15:36:52;102031.42;;;6.41;58.91
59545;BME280;45368;55.002;-1.592;2023-01-25T15:39:19;102041.88;;;6.30;59.14
59545;BME280;45368;55.002;-1.592;2023-01-25T15:41:47;102043.15;;;5.96;59.90
59545;BME280;45368;55.002;-1.592;2023-01-25T15:44:15;102039.75;;;6.13;59.75
59545;BME280;45368;55.002;-1.592;2023-01-25T15:46:45;102040.16;;;6.18;59.71
59545;BME280;45368;55.002;-1.592;2023-01-25T15:49:17;102036.55;;;6.40;59.65
59545;BME280;45368;55.002;-1.592;2023-01-25T15:51:46;102034.09;;;5.74;60.62
59545;BME280;45368;55.002;-1.592;2023-01-25T15:54:13;102045.84;;;5.99;59.98
59545;BME280;45368;55.002;-1.592;2023-01-25T15:56:42;102051.76;;;6.73;59.33
59545;BME280;45368;55.002;-1.592;2023-01-25T15:59:14;102052.91;;;6.75;58.18
59545;BME280;45368;55.002;-1.592;2023-01-25T16:01:43;102054.88;;;6.64;57.26